Time;durP1;ratioP1;P1;durP2;ratioP2;P2;SDS_P1;SDS_P2;PMS_P1;PMS_P2;Temp;Humidity;BMP_temperature;BMP_pressure;BME280_temperature;BME280_humidity;BME280_pressure;Samples;Min_cycle;Max_cycle;Signal;HPM_P1;HPM_P2
2021/08/11 00:02:19;;;;;;;13.07;4.07;;;25.00;99.90;;;;;;4827791;29;20057;-79
2021/08/11 00:04:44;;;;;;;8.65;3.63;;;25.00;99.80;;;;;;4826565;29;20030;-79
2021/08/11 00:07:10;;;;;;;12.55;4.47;;;25.00;99.80;;;;;;4826802;29;20472;-79
2021/08/11 00:09:36;;;;;;;12.70;3.92;;;24.90;99.70;;;;;;4826729;29;20063;-80
2021/08/11 00:12:02;;;;;;;7.75;4.20;;;24.90;99.80;;;;;;4826708;29;20056;-81
2021/08/11 00:14:27;;;;;;;10.73;4.10;;;24.90;99.90;;;;;;4826502;29;20038;-79
2021/08/11 00:16:53;;;;;;;12.10;3.83;;;24.90;99.90;;;;;;4825105;29;20159;-78
2021/08/11 00:19:19;;;;;;;9.80;3.88;;;24.90;99.90;;;;;;4826442;29;20038;-78
2021/08/11 00:21:45;;;;;;;9.05;3.97;;;24.90;99.90;;;;;;4826330;29;20046;-79
2021/08/11 00:24:10;;;;;;;9.90;4.00;;;24.80;99.90;;;;;;4826344;29;20035;-79
2021/08/11 00:26:37;;;;;;;17.58;3.65;;;24.80;99.90;;;;;;4826511;29;20236;-78
2021/08/11 00:29:03;;;;;;;7.97;4.22;;;24.80;99.90;;;;;;4826623;29;20058;-81
2021/08/11 00:31:30;;;;;;;18.90;4.40;;;24.80;99.90;;;;;;4825922;29;20496;-80
2021/08/11 00:33:55;;;;;;;7.03;3.70;;;24.70;99.90;;;;;;4826365;29;20069;-79
2021/08/11 00:36:21;;;;;;;8.68;4.20;;;24.70;99.90;;;;;;4826228;29;20433;-79
2021/08/11 00:38:47;;;;;;;10.77;4.20;;;24.70;99.90;;;;;;4826160;29;20506;-78
2021/08/11 00:41:15;;;;;;;11.05;4.78;;;24.70;99.90;;;;;;4825997;29;20045;-80
2021/08/11 00:43:41;;;;;;;11.30;3.80;;;24.70;99.90;;;;;;4824905;29;20073;-79
2021/08/11 00:46:10;;;;;;;8.82;3.60;;;24.70;99.90;;;;;;4826191;29;20050;-80
2021/08/11 00:48:37;;;;;;;9.00;3.78;;;24.70;99.90;;;;;;4825738;29;20034;-80
2021/08/11 00:51:04;;;;;;;12.93;3.58;;;24.60;99.90;;;;;;4826153;29;20535;-79
2021/08/11 00:53:32;;;;;;;6.75;3.67;;;24.70;99.90;;;;;;4825963;29;20106;-83
2021/08/11 00:55:59;;;;;;;12.30;3.60;;;24.70;99.90;;;;;;4825869;29;20492;-80
2021/08/11 00:58:27;;;;;;;13.35;3.95;;;24.60;99.90;;;;;;4825875;29;20066;-79
2021/08/11 01:00:55;;;;;;;11.40;3.53;;;24.60;99.90;;;;;;4825512;29;20111;-80
2021/08/11 01:03:22;;;;;;;7.20;3.58;;;24.50;99.90;;;;;;4825485;29;20580;-79
2021/08/11 01:05:50;;;;;;;7.93;3.65;;;24.50;99.90;;;;;;4825734;29;20483;-79
2021/08/11 01:08:18;;;;;;;6.43;4.05;;;24.50;99.90;;;;;;4825873;29;20046;-79
2021/08/11 01:10:46;;;;;;;8.07;3.80;;;24.60;99.90;;;;;;4826012;29;20065;-79
2021/08/11 01:13:13;;;;;;;7.63;4.20;;;24.60;99.90;;;;;;4825552;29;20121;-78
2021/08/11 01:15:43;;;;;;;13.68;4.13;;;24.60;99.90;;;;;;4826054;29;20038;-80
2021/08/11 01:18:09;;;;;;;13.13;4.35;;;24.60;99.90;;;;;;4824358;29;20046;-80
2021/08/11 01:20:40;;;;;;;11.65;3.53;;;24.60;99.90;;;;;;4825746;29;20030;-79
2021/08/11 01:23:12;;;;;;;8.07;3.80;;;24.50;99.90;;;;;;4825604;29;20480;-79
2021/08/11 01:25:46;;;;;;;9.55;3.70;;;24.50;99.90;;;;;;4825485;29;20045;-79
2021/08/11 01:28:21;;;;;;;12.38;4.43;;;24.50;99.90;;;;;;4823601;29;20412;-79
2021/08/11 01:31:07;;;;;;;6.75;3.08;;;24.50;99.90;;;;;;4825449;29;20125;-80
2021/08/11 01:33:37;;;;;;;12.05;3.95;;;24.50;99.90;;;;;;4824304;29;20369;-79
2021/08/11 01:36:30;;;;;;;10.70;3.72;;;24.40;99.90;;;;;;4825197;29;20045;-79
2021/08/11 01:39:14;;;;;;;9.02;3.65;;;24.50;99.90;;;;;;4824026;29;20031;-79
2021/08/11 01:41:48;;;;;;;10.32;4.25;;;24.50;99.90;;;;;;4825138;29;20507;-79
2021/08/11 01:44:14;;;;;;;15.35;4.63;;;24.50;99.90;;;;;;4823970;29;20065;-80
2021/08/11 01:46:42;;;;;;;9.38;4.07;;;24.50;99.90;;;;;;4825524;29;20492;-79
2021/08/11 01:49:11;;;;;;;14.15;4.53;;;24.50;99.90;;;;;;4825041;29;20034;-79
2021/08/11 01:51:40;;;;;;;21.92;4.10;;;24.50;99.90;;;;;;4825130;29;20034;-79
2021/08/11 01:54:08;;;;;;;7.57;3.17;;;24.50;99.90;;;;;;4825032;29;20031;-79
2021/08/11 01:56:35;;;;;;;10.75;4.55;;;24.50;99.90;;;;;;4825006;29;20042;-80
2021/08/11 01:59:03;;;;;;;8.18;3.90;;;24.50;99.90;;;;;;4825116;29;20050;-79
2021/08/11 02:01:29;;;;;;;6.22;3.80;;;24.50;99.90;;;;;;4824936;29;20043;-79
2021/08/11 02:03:55;;;;;;;8.30;4.28;;;24.60;99.90;;;;;;4824951;29;20079;-80
2021/08/11 02:06:21;;;;;;;7.80;4.07;;;24.50;99.90;;;;;;4824644;29;20046;-79
2021/08/11 02:08:48;;;;;;;13.27;4.63;;;24.50;99.90;;;;;;4825109;29;20437;-80
2021/08/11 02:11:14;;;;;;;11.30;4.18;;;24.50;99.90;;;;;;4824695;29;20034;-79
2021/08/11 02:13:40;;;;;;;11.98;4.18;;;24.50;99.90;;;;;;4824535;29;20046;-79
2021/08/11 02:16:06;;;;;;;8.50;4.20;;;24.50;99.90;;;;;;4824809;29;20083;-79
2021/08/11 02:18:32;;;;;;;7.93;4.10;;;24.50;99.90;;;;;;4824685;29;20565;-79
2021/08/11 02:20:58;;;;;;;6.63;3.80;;;24.50;99.90;;;;;;4824771;29;20030;-79
2021/08/11 02:23:24;;;;;;;10.25;4.30;;;24.50;99.90;;;;;;4824788;29;20380;-78
2021/08/11 02:25:56;;;;;;;8.07;3.85;;;24.50;99.90;;;;;;4824657;29;20038;-79
2021/08/11 02:28:51;;;;;;;8.75;4.10;;;24.40;99.90;;;;;;4823148;29;20400;-80
2021/08/11 02:31:31;;;;;;;11.75;3.90;;;24.40;99.90;;;;;;4819337;29;20091;-78
2021/08/11 02:34:06;;;;;;;10.05;3.45;;;24.40;99.90;;;;;;4824637;29;20106;-77
2021/08/11 02:36:39;;;;;;;6.75;3.85;;;24.40;99.90;;;;;;4823253;29;20042;-80
2021/08/11 02:39:11;;;;;;;19.77;3.95;;;24.40;99.90;;;;;;4825105;29;20384;-80
2021/08/11 02:41:44;;;;;;;9.50;3.67;;;24.40;99.90;;;;;;4827282;29;20428;-80
2021/08/11 02:44:26;;;;;;;11.70;3.70;;;24.40;99.90;;;;;;4826742;29;20049;-82
2021/08/11 02:46:53;;;;;;;11.27;3.65;;;24.40;99.90;;;;;;4827801;29;20047;-81
2021/08/11 02:49:24;;;;;;;7.15;3.80;;;24.30;99.90;;;;;;4828016;29;20111;-81
2021/08/11 02:51:51;;;;;;;6.40;3.63;;;24.30;99.90;;;;;;4828017;29;20030;-80
2021/08/11 02:54:19;;;;;;;11.27;4.88;;;24.30;99.90;;;;;;4827791;29;20472;-80
2021/08/11 02:56:47;;;;;;;11.25;4.55;;;24.20;99.90;;;;;;4827862;29;20046;-80
2021/08/11 02:59:14;;;;;;;6.70;3.53;;;24.10;99.90;;;;;;4827365;29;20050;-80
2021/08/11 03:01:41;;;;;;;9.88;3.53;;;24.00;99.90;;;;;;4827653;29;20038;-80
2021/08/11 03:04:07;;;;;;;8.68;4.15;;;24.00;99.90;;;;;;4827768;29;20451;-80
2021/08/11 03:06:33;;;;;;;7.18;3.97;;;24.00;99.90;;;;;;4826472;29;20138;-80
2021/08/11 03:09:00;;;;;;;12.73;5.05;;;24.10;99.90;;;;;;4826106;29;20492;-80
2021/08/11 03:11:27;;;;;;;11.25;4.80;;;24.10;99.90;;;;;;4827677;29;20049;-80
2021/08/11 03:13:54;;;;;;;6.18;4.57;;;24.00;99.90;;;;;;4827380;29;20027;-80
2021/08/11 03:16:20;;;;;;;11.93;4.18;;;24.00;99.90;;;;;;4827331;29;20038;-82
2021/08/11 03:18:49;;;;;;;13.00;4.45;;;24.00;99.90;;;;;;4827392;29;20039;-80
2021/08/11 03:21:15;;;;;;;4.82;3.70;;;23.90;99.90;;;;;;4827177;29;20071;-80
2021/08/11 03:23:40;;;;;;;8.98;4.78;;;23.90;99.90;;;;;;4827511;29;20055;-80
2021/08/11 03:26:06;;;;;;;14.02;4.30;;;23.80;99.90;;;;;;4826977;29;20046;-80
2021/08/11 03:28:32;;;;;;;9.10;4.40;;;23.80;99.90;;;;;;4827190;29;20042;-79
2021/08/11 03:30:58;;;;;;;16.58;4.30;;;23.90;99.90;;;;;;4827164;29;20034;-80
2021/08/11 03:33:23;;;;;;;8.93;4.65;;;23.90;99.90;;;;;;4826923;29;20046;-80
2021/08/11 03:35:49;;;;;;;13.85;4.10;;;23.90;99.90;;;;;;4827227;29;20038;-80
2021/08/11 03:38:15;;;;;;;11.65;4.20;;;23.80;99.90;;;;;;4827038;29;20030;-80
2021/08/11 03:40:41;;;;;;;15.02;4.72;;;23.80;99.90;;;;;;4827135;29;20437;-80
2021/08/11 03:43:06;;;;;;;14.40;4.50;;;23.80;99.90;;;;;;4827279;29;20083;-80
2021/08/11 03:45:32;;;;;;;9.10;4.13;;;23.90;99.90;;;;;;4826888;29;20047;-80
2021/08/11 03:47:58;;;;;;;5.18;3.60;;;23.80;99.90;;;;;;4826808;29;20062;-80
2021/08/11 03:50:25;;;;;;;10.48;3.92;;;23.90;99.90;;;;;;4826897;29;20038;-80
2021/08/11 03:52:52;;;;;;;10.10;4.25;;;23.90;99.90;;;;;;4825501;29;20070;-80
2021/08/11 03:55:18;;;;;;;7.63;4.35;;;23.90;99.90;;;;;;4826924;29;20043;-80
2021/08/11 03:57:44;;;;;;;9.35;4.20;;;23.90;99.90;;;;;;4826918;29;20487;-79
2021/08/11 04:00:10;;;;;;;8.82;4.30;;;24.00;99.90;;;;;;4826450;29;20111;-81
2021/08/11 04:02:36;;;;;;;16.98;5.05;;;23.90;99.90;;;;;;4826669;29;20062;-80
2021/08/11 04:05:06;;;;;;;10.45;4.45;;;24.00;99.90;;;;;;4826526;29;20477;-79
2021/08/11 04:07:32;;;;;;;13.90;4.88;;;24.00;99.90;;;;;;4826831;29;20054;-80
2021/08/11 04:09:58;;;;;;;7.15;4.10;;;24.00;99.90;;;;;;4826638;29;20433;-80
2021/08/11 04:12:23;;;;;;;17.42;4.60;;;24.10;99.90;;;;;;4826977;29;20045;-79
2021/08/11 04:14:49;;;;;;;13.27;4.60;;;24.10;99.90;;;;;;4825428;29;20492;-80
2021/08/11 04:17:15;;;;;;;18.15;4.63;;;24.10;99.90;;;;;;4826499;29;20388;-80
2021/08/11 04:19:40;;;;;;;7.97;4.30;;;24.20;99.90;;;;;;4827228;29;20041;-82
2021/08/11 04:22:06;;;;;;;8.90;4.10;;;24.20;99.90;;;;;;4825265;29;20050;-78
2021/08/11 04:24:32;;;;;;;9.18;4.18;;;24.20;99.90;;;;;;4826512;29;20585;-79
2021/08/11 04:26:57;;;;;;;10.07;4.25;;;24.20;99.90;;;;;;4826474;29;20073;-80
2021/08/11 04:29:23;;;;;;;6.55;3.80;;;24.20;99.90;;;;;;4826779;29;20468;-79
2021/08/11 04:31:49;;;;;;;10.80;3.92;;;24.30;99.90;;;;;;4828924;29;20031;-82
2021/08/11 04:34:14;;;;;;;9.52;4.50;;;24.30;99.90;;;;;;4828058;29;20070;-82
2021/08/11 04:36:40;;;;;;;8.82;4.55;;;24.40;99.90;;;;;;4827702;29;20106;-77
2021/08/11 04:39:06;;;;;;;13.07;4.13;;;24.50;99.90;;;;;;4827638;29;20139;-81
2021/08/11 04:41:31;;;;;;;11.05;4.43;;;24.60;99.90;;;;;;4827849;29;20548;-81
2021/08/11 04:43:57;;;;;;;14.68;4.57;;;24.60;99.90;;;;;;4826500;29;20044;-80
2021/08/11 04:46:22;;;;;;;12.40;5.55;;;24.70;99.90;;;;;;4828474;29;20079;-79
2021/08/11 04:48:48;;;;;;;14.60;4.78;;;24.80;99.90;;;;;;4825570;29;20044;-79
2021/08/11 04:51:14;;;;;;;16.67;4.97;;;24.80;99.90;;;;;;4826495;29;20035;-79
2021/08/11 04:53:40;;;;;;;7.70;4.00;;;24.90;99.90;;;;;;4826129;29;20042;-86
2021/08/11 04:56:05;;;;;;;7.65;4.10;;;25.00;99.90;;;;;;4827978;29;20506;-83
2021/08/11 04:58:31;;;;;;;15.68;5.22;;;25.10;99.90;;;;;;4827475;29;20031;-80
2021/08/11 05:00:57;;;;;;;9.07;4.40;;;25.30;99.90;;;;;;4825788;29;20514;-82
2021/08/11 05:03:22;;;;;;;13.07;4.40;;;25.60;99.90;;;;;;4825115;29;20038;-83
2021/08/11 05:05:48;;;;;;;14.55;4.70;;;25.80;99.90;;;;;;4825948;29;20038;-84
2021/08/11 05:08:14;;;;;;;16.65;5.68;;;26.20;99.90;;;;;;4824960;29;20058;-85
2021/08/11 05:10:39;;;;;;;16.20;4.13;;;26.60;99.90;;;;;;4825440;29;20414;-82
2021/08/11 05:13:05;;;;;;;13.55;4.03;;;27.00;99.90;;;;;;4825879;29;20075;-83
2021/08/11 05:15:31;;;;;;;10.85;4.38;;;27.40;99.90;;;;;;4825780;29;20503;-82
2021/08/11 05:17:56;;;;;;;7.80;4.30;;;27.90;99.90;;;;;;4825464;29;20086;-82
2021/08/11 05:20:22;;;;;;;11.55;4.43;;;28.50;99.90;;;;;;4827051;29;20027;-80
2021/08/11 05:22:48;;;;;;;8.38;4.43;;;29.50;99.40;;;;;;4825626;29;20074;-83
2021/08/11 05:25:14;;;;;;;11.60;4.35;;;31.20;97.60;;;;;;4825392;29;20038;-81
2021/08/11 05:27:44;;;;;;;15.70;4.00;;;33.00;95.50;;;;;;4825270;29;20574;-81
2021/08/11 05:30:10;;;;;;;13.15;4.47;;;34.50;93.80;;;;;;4826049;29;20045;-83
2021/08/11 05:32:36;;;;;;;10.88;3.53;;;35.70;92.10;;;;;;4825311;29;20188;-82
2021/08/11 05:35:03;;;;;;;6.43;3.15;;;36.80;91.10;;;;;;4825075;29;20110;-81
2021/08/11 05:37:29;;;;;;;8.70;3.88;;;37.70;90.00;;;;;;4825257;29;20034;-82
2021/08/11 05:39:54;;;;;;;10.90;3.85;;;38.50;87.80;;;;;;4825187;29;20179;-83
2021/08/11 05:42:20;;;;;;;12.02;3.80;;;38.90;86.20;;;;;;4825234;29;20043;-83
2021/08/11 05:44:46;;;;;;;9.35;3.70;;;39.50;85.20;;;;;;4824969;29;20045;-83
2021/08/11 05:47:12;;;;;;;11.20;3.40;;;40.00;83.60;;;;;;4824938;29;20043;-82
2021/08/11 05:49:37;;;;;;;13.57;3.78;;;40.30;82.70;;;;;;4825176;29;20034;-80
2021/08/11 05:52:06;;;;;;;14.95;4.72;;;40.70;81.90;;;;;;4823732;29;20038;-81
2021/08/11 05:54:35;;;;;;;20.08;4.35;;;41.10;80.80;;;;;;4825209;29;20042;-81
2021/08/11 05:57:01;;;;;;;11.40;4.05;;;41.50;79.90;;;;;;4825048;29;20034;-80
2021/08/11 05:59:28;;;;;;;11.30;3.38;;;41.60;79.20;;;;;;4824394;29;20054;-80
2021/08/11 06:01:53;;;;;;;12.75;3.63;;;41.70;78.60;;;;;;4824741;29;20072;-80
2021/08/11 06:04:22;;;;;;;11.68;3.63;;;41.90;78.40;;;;;;4824854;29;20034;-80
2021/08/11 06:06:48;;;;;;;12.98;4.30;;;42.00;77.90;;;;;;4824314;29;20062;-80
2021/08/11 06:09:13;;;;;;;12.20;2.97;;;42.20;77.60;;;;;;4824687;29;20366;-81
2021/08/11 06:11:39;;;;;;;9.50;4.43;;;42.40;77.10;;;;;;4824769;29;20038;-80
2021/08/11 06:14:05;;;;;;;10.68;4.15;;;42.60;76.60;;;;;;4824820;29;20038;-80
2021/08/11 06:16:30;;;;;;;9.38;3.60;;;42.60;76.90;;;;;;4824418;29;20106;-81
2021/08/11 06:18:57;;;;;;;8.52;3.40;;;42.60;77.10;;;;;;4824572;29;20053;-79
2021/08/11 06:21:24;;;;;;;6.00;3.00;;;42.50;76.60;;;;;;4823553;29;20037;-81
2021/08/11 06:23:51;;;;;;;12.55;3.88;;;42.50;76.70;;;;;;4824517;29;20041;-79
2021/08/11 06:26:17;;;;;;;14.50;3.60;;;42.70;76.10;;;;;;4824404;29;20041;-80
2021/08/11 06:28:43;;;;;;;10.98;3.30;;;42.50;76.30;;;;;;4823263;29;20053;-80
2021/08/11 06:31:09;;;;;;;11.77;3.08;;;42.70;76.50;;;;;;4824267;29;20043;-80
2021/08/11 06:33:34;;;;;;;9.15;2.90;;;42.60;76.60;;;;;;4824782;29;20042;-81
2021/08/11 06:36:00;;;;;;;10.65;3.38;;;42.00;77.10;;;;;;4824583;29;20480;-80
2021/08/11 06:38:26;;;;;;;7.15;3.08;;;42.00;77.80;;;;;;4824497;29;20122;-80
2021/08/11 06:40:51;;;;;;;7.90;3.17;;;41.90;77.60;;;;;;4824614;29;20035;-84
2021/08/11 06:43:18;;;;;;;6.40;3.17;;;42.00;77.70;;;;;;4824270;29;20043;-80
2021/08/11 06:45:44;;;;;;;6.13;3.30;;;42.40;77.60;;;;;;4824279;29;20034;-80
2021/08/11 06:48:10;;;;;;;7.25;3.08;;;42.80;76.70;;;;;;4824312;29;20043;-81
2021/08/11 06:50:36;;;;;;;10.35;3.80;;;43.20;76.00;;;;;;4824517;29;20109;-80
2021/08/11 06:53:01;;;;;;;20.17;3.50;;;43.20;76.00;;;;;;4824884;29;20042;-81
2021/08/11 06:55:27;;;;;;;7.63;3.67;;;44.00;74.90;;;;;;4824306;29;20095;-81
2021/08/11 06:57:52;;;;;;;11.32;3.88;;;44.60;73.60;;;;;;4824388;29;20420;-81
2021/08/11 07:00:19;;;;;;;10.02;2.55;;;44.70;73.60;;;;;;4823890;29;20084;-81
2021/08/11 07:02:45;;;;;;;8.38;2.70;;;45.30;72.40;;;;;;4824297;29;20035;-80
2021/08/11 07:05:11;;;;;;;10.90;3.45;;;45.80;72.00;;;;;;4824195;29;20038;-79
2021/08/11 07:07:37;;;;;;;10.98;2.72;;;45.90;71.40;;;;;;4824101;29;20053;-80
2021/08/11 07:10:05;;;;;;;11.65;3.17;;;45.90;71.20;;;;;;4822735;29;20042;-80
2021/08/11 07:12:30;;;;;;;13.18;2.97;;;45.60;71.70;;;;;;4824318;29;20174;-81
2021/08/11 07:14:56;;;;;;;8.07;3.50;;;45.40;72.10;;;;;;4824227;29;20067;-80
2021/08/11 07:17:22;;;;;;;8.35;3.05;;;44.80;72.50;;;;;;4823884;29;20030;-80
2021/08/11 07:19:48;;;;;;;7.68;2.97;;;44.10;73.60;;;;;;4824216;29;20037;-80
2021/08/11 07:22:13;;;;;;;9.32;3.03;;;44.30;73.20;;;;;;4824099;29;20034;-80
2021/08/11 07:24:39;;;;;;;10.95;2.72;;;44.90;72.10;;;;;;4823996;29;20109;-80
2021/08/11 07:27:05;;;;;;;9.40;2.75;;;45.40;71.50;;;;;;4825513;29;20049;-80
2021/08/11 07:29:31;;;;;;;5.10;2.80;;;45.60;71.10;;;;;;4827432;29;20106;-82
2021/08/11 07:31:57;;;;;;;9.02;2.95;;;45.40;71.60;;;;;;4827369;29;20048;-81
2021/08/11 07:34:23;;;;;;;6.00;3.15;;;45.10;71.30;;;;;;4827235;29;20109;-82
2021/08/11 07:36:49;;;;;;;11.25;2.65;;;45.30;71.10;;;;;;4827238;29;20042;-80
2021/08/11 07:39:15;;;;;;;5.85;3.03;;;45.60;70.30;;;;;;4827094;29;20038;-80
2021/08/11 07:41:41;;;;;;;7.32;2.83;;;45.80;70.30;;;;;;4825806;29;20041;-80
2021/08/11 07:44:07;;;;;;;8.18;2.95;;;46.10;69.80;;;;;;4827007;29;20105;-81
2021/08/11 07:46:33;;;;;;;6.22;2.50;;;46.20;69.50;;;;;;4826996;29;20145;-81
2021/08/11 07:49:00;;;;;;;9.90;3.13;;;46.70;69.10;;;;;;4826639;29;20463;-80
2021/08/11 07:51:26;;;;;;;4.00;2.60;;;47.00;68.30;;;;;;4827051;29;20476;-81
2021/08/11 07:53:52;;;;;;;9.57;3.20;;;47.00;68.20;;;;;;4826996;29;20039;-81
2021/08/11 07:56:18;;;;;;;6.68;2.80;;;47.00;67.90;;;;;;4826871;29;20050;-82
2021/08/11 07:58:44;;;;;;;10.27;2.72;;;47.40;67.50;;;;;;4827273;29;20041;-81
2021/08/11 08:01:09;;;;;;;13.30;2.80;;;47.30;67.80;;;;;;4826857;29;20062;-82
2021/08/11 08:03:35;;;;;;;18.13;2.70;;;47.10;67.40;;;;;;4826608;29;20034;-80
2021/08/11 08:06:01;;;;;;;11.10;2.90;;;47.10;67.00;;;;;;4826719;29;20041;-80
2021/08/11 08:08:26;;;;;;;11.13;2.85;;;47.30;66.70;;;;;;4826799;29;20095;-82
2021/08/11 08:10:52;;;;;;;7.18;2.60;;;47.30;67.00;;;;;;4826514;29;20035;-81
2021/08/11 08:13:20;;;;;;;5.13;2.30;;;47.20;66.60;;;;;;4825471;29;20050;-81
2021/08/11 08:15:48;;;;;;;7.10;2.75;;;47.40;66.20;;;;;;4826226;29;20035;-82
2021/08/11 08:18:14;;;;;;;16.50;3.17;;;47.70;66.00;;;;;;4826957;29;20157;-81
2021/08/11 08:20:39;;;;;;;11.50;2.90;;;48.00;66.10;;;;;;4826840;29;20109;-80
2021/08/11 08:23:05;;;;;;;5.05;2.72;;;47.70;66.30;;;;;;4826460;29;20035;-81
2021/08/11 08:25:31;;;;;;;8.10;2.33;;;47.30;66.70;;;;;;4826416;29;20466;-81
2021/08/11 08:27:56;;;;;;;7.65;2.65;;;46.80;66.50;;;;;;4826056;29;20053;-81
2021/08/11 08:30:22;;;;;;;8.43;3.10;;;46.50;66.50;;;;;;4826137;29;20453;-80
2021/08/11 08:32:51;;;;;;;6.25;2.58;;;45.60;67.20;;;;;;4826530;29;20039;-82
2021/08/11 08:35:17;;;;;;;7.15;3.20;;;44.10;68.60;;;;;;4826747;29;20043;-81
2021/08/11 08:37:42;;;;;;;10.70;2.63;;;42.80;70.70;;;;;;4825294;29;20038;-80
2021/08/11 08:40:10;;;;;;;5.50;2.92;;;41.90;72.60;;;;;;4826103;29;20034;-81
2021/08/11 08:42:43;;;;;;;11.85;3.50;;;41.30;73.70;;;;;;4826248;29;20037;-83
2021/08/11 08:45:11;;;;;;;17.77;3.45;;;40.90;76.20;;;;;;4825920;29;20445;-81
2021/08/11 08:47:37;;;;;;;9.90;3.90;;;40.40;75.80;;;;;;4825717;29;20107;-81
2021/08/11 08:50:09;;;;;;;7.60;3.17;;;40.10;77.10;;;;;;4825936;29;20034;-81
2021/08/11 08:52:37;;;;;;;8.57;3.78;;;39.80;78.30;;;;;;4825849;29;20556;-81
2021/08/11 08:55:03;;;;;;;10.73;3.90;;;39.70;79.60;;;;;;4825991;29;20193;-81
2021/08/11 08:57:29;;;;;;;12.98;4.03;;;39.70;78.70;;;;;;4825957;29;20045;-80
2021/08/11 08:59:56;;;;;;;7.75;3.45;;;39.70;78.20;;;;;;4825422;29;20129;-80
2021/08/11 09:02:22;;;;;;;9.05;3.13;;;39.90;78.10;;;;;;4825784;29;20075;-81
2021/08/11 09:04:50;;;;;;;8.90;3.42;;;39.80;74.90;;;;;;4825576;29;20046;-80
2021/08/11 09:07:20;;;;;;;6.88;2.88;;;39.50;76.50;;;;;;4824394;29;20442;-81
2021/08/11 09:09:46;;;;;;;14.63;3.95;;;39.40;77.90;;;;;;4825644;29;20086;-80
2021/08/11 09:12:19;;;;;;;10.43;4.10;;;39.10;80.00;;;;;;4825851;29;20117;-80
2021/08/11 09:14:50;;;;;;;12.63;3.95;;;38.80;80.40;;;;;;4825741;29;20384;-80
2021/08/11 09:17:38;;;;;;;11.95;4.15;;;38.70;81.60;;;;;;4825588;29;20043;-80
2021/08/11 09:20:06;;;;;;;16.10;3.90;;;38.50;81.70;;;;;;4825524;29;20536;-80
2021/08/11 09:22:49;;;;;;;13.10;4.47;;;38.30;81.20;;;;;;4825420;29;20129;-82
2021/08/11 09:25:15;;;;;;;9.65;3.63;;;38.10;82.30;;;;;;4825429;29;20447;-81
2021/08/11 09:27:43;;;;;;;12.43;4.15;;;37.90;83.40;;;;;;4825346;29;20142;-82
2021/08/11 09:30:13;;;;;;;10.40;3.92;;;37.70;83.80;;;;;;4825564;29;20383;-80
2021/08/11 09:33:04;;;;;;;7.15;3.58;;;37.40;84.30;;;;;;4825633;29;20057;-80
2021/08/11 09:35:32;;;;;;;9.63;4.03;;;37.40;85.40;;;;;;4825065;29;20502;-80
2021/08/11 09:38:05;;;;;;;9.85;4.15;;;37.40;84.90;;;;;;4824319;29;20046;-80
2021/08/11 09:40:33;;;;;;;10.38;4.50;;;37.40;84.60;;;;;;4825389;29;20189;-80
2021/08/11 09:43:02;;;;;;;11.60;4.53;;;37.40;86.30;;;;;;4825317;29;20031;-80
2021/08/11 09:45:48;;;;;;;6.55;3.83;;;36.70;86.70;;;;;;4825008;29;20107;-81
2021/08/11 09:48:16;;;;;;;13.73;4.97;;;36.50;87.60;;;;;;4825331;29;20081;-80
2021/08/11 09:50:49;;;;;;;15.52;5.13;;;36.20;86.80;;;;;;4824856;29;20461;-82
2021/08/11 09:53:26;;;;;;;11.00;4.70;;;36.00;89.00;;;;;;4825392;29;20053;-76
2021/08/11 09:56:14;;;;;;;11.93;5.50;;;35.80;90.10;;;;;;4824040;29;20045;-75
2021/08/11 09:58:45;;;;;;;11.77;4.72;;;35.90;89.10;;;;;;4824935;29;20065;-75
2021/08/11 10:01:16;;;;;;;6.80;4.25;;;36.00;87.10;;;;;;4806759;29;20434;-75
2021/08/11 10:03:59;;;;;;;8.73;4.45;;;35.80;86.90;;;;;;4806597;29;20133;-75
2021/08/11 10:06:32;;;;;;;6.72;4.28;;;35.90;87.70;;;;;;4806794;29;20031;-74
2021/08/11 10:09:18;;;;;;;9.00;4.75;;;35.90;88.50;;;;;;4806360;29;20038;-75
2021/08/11 10:11:56;;;;;;;15.57;4.68;;;36.10;88.60;;;;;;4806830;29;20449;-75
2021/08/11 10:14:26;;;;;;;13.15;5.25;;;36.40;87.80;;;;;;4806591;29;20087;-75
2021/08/11 10:16:53;;;;;;;13.00;4.22;;;36.40;87.30;;;;;;4806593;29;20038;-75
2021/08/11 10:19:24;;;;;;;13.90;4.55;;;36.30;88.70;;;;;;4806231;29;20053;-75
2021/08/11 10:21:59;;;;;;;6.07;4.25;;;36.20;88.00;;;;;;4806510;29;20400;-74
2021/08/11 10:24:25;;;;;;;8.88;4.25;;;36.00;90.10;;;;;;4806768;29;20035;-75
2021/08/11 10:26:52;;;;;;;6.97;3.97;;;35.80;90.70;;;;;;4806421;29;20408;-76
2021/08/11 10:29:19;;;;;;;10.77;4.85;;;35.80;90.20;;;;;;4806574;29;20035;-75
2021/08/11 10:31:45;;;;;;;9.57;4.10;;;35.80;90.80;;;;;;4806197;29;20121;-76
2021/08/11 10:34:15;;;;;;;10.23;4.65;;;35.90;90.70;;;;;;4806269;29;20110;-78
2021/08/11 10:36:42;;;;;;;;;;;36.10;90.50;;;;;;4806775;29;20039;-78
2021/08/11 10:39:08;;;;;;;7.75;3.60;;;36.30;90.00;;;;;;4806278;29;19917;-75
2021/08/11 10:41:35;;;;;;;11.55;4.57;;;36.50;89.60;;;;;;4806225;29;20110;-76
2021/08/11 10:44:03;;;;;;;10.40;3.90;;;36.50;88.00;;;;;;4806066;29;20039;-76
2021/08/11 10:46:48;;;;;;;6.85;3.90;;;36.20;88.40;;;;;;4806269;29;20059;-77
2021/08/11 10:49:17;;;;;;;8.43;4.25;;;35.90;87.80;;;;;;4805129;29;20082;-76
2021/08/11 10:51:46;;;;;;;15.00;4.60;;;35.90;88.10;;;;;;4806130;29;20031;-78
2021/08/11 10:54:12;;;;;;;8.38;4.25;;;35.80;87.90;;;;;;4806156;29;20393;-75
2021/08/11 10:56:52;;;;;;;7.72;4.43;;;35.50;89.20;;;;;;4806080;29;20038;-75
2021/08/11 10:59:29;;;;;;;14.18;4.20;;;35.50;90.00;;;;;;4810445;29;20062;-75
2021/08/11 11:01:56;;;;;;;7.90;4.13;;;35.50;89.60;;;;;;4825761;29;20093;-76
2021/08/11 11:04:38;;;;;;;10.02;4.53;;;35.30;90.30;;;;;;4827676;29;20061;-76
2021/08/11 11:07:13;;;;;;;10.48;4.68;;;35.30;91.20;;;;;;4827576;29;20042;-77
2021/08/11 11:09:40;;;;;;;12.35;4.15;;;35.30;90.80;;;;;;4827612;29;20473;-75
2021/08/11 11:12:19;;;;;;;11.82;4.10;;;35.30;90.60;;;;;;4827620;29;20113;-76
2021/08/11 11:14:48;;;;;;;8.00;4.40;;;35.10;90.60;;;;;;4827351;29;20042;-74
2021/08/11 11:17:15;;;;;;;7.68;4.00;;;35.00;90.90;;;;;;4827472;29;20035;-74
2021/08/11 11:20:03;;;;;;;18.70;4.35;;;34.90;90.90;;;;;;4827484;29;20121;-75
2021/08/11 11:22:49;;;;;;;12.32;4.00;;;34.90;91.10;;;;;;4827626;29;20042;-75
2021/08/11 11:25:15;;;;;;;12.25;4.25;;;35.10;90.80;;;;;;4827593;29;20039;-75
2021/08/11 11:27:41;;;;;;;6.38;3.83;;;35.30;89.30;;;;;;4826983;29;20547;-77
2021/08/11 11:30:09;;;;;;;11.73;4.13;;;35.40;88.40;;;;;;4827260;29;20058;-76
2021/08/11 11:32:37;;;;;;;7.65;3.95;;;35.30;89.30;;;;;;4827359;29;20534;-77
2021/08/11 11:35:23;;;;;;;7.80;4.40;;;35.20;89.60;;;;;;4827104;29;20038;-78
2021/08/11 11:38:08;;;;;;;7.55;4.43;;;35.20;90.00;;;;;;4827259;29;20047;-77
2021/08/11 11:40:56;;;;;;;9.75;4.22;;;35.40;89.50;;;;;;4827086;29;20042;-75
2021/08/11 11:43:26;;;;;;;13.18;4.10;;;35.40;88.00;;;;;;4826869;29;20035;-75
2021/08/11 11:45:52;;;;;;;7.10;4.28;;;35.40;88.90;;;;;;4827328;29;20030;-77
2021/08/11 11:48:18;;;;;;;9.55;4.45;;;35.50;88.60;;;;;;4826874;29;20133;-76
2021/08/11 11:50:49;;;;;;;12.25;4.07;;;35.50;88.40;;;;;;4827017;29;20034;-76
2021/08/11 11:53:22;;;;;;;14.77;4.40;;;35.50;88.20;;;;;;4827021;29;20113;-77
2021/08/11 11:55:48;;;;;;;7.30;4.65;;;35.60;87.70;;;;;;4825513;29;20404;-75
2021/08/11 11:58:19;;;;;;;7.40;4.20;;;35.50;87.90;;;;;;4826877;29;20034;-77
2021/08/11 12:00:47;;;;;;;13.07;4.10;;;35.40;88.50;;;;;;4826789;29;20060;-74
2021/08/11 12:03:14;;;;;;;17.02;4.55;;;35.30;88.80;;;;;;4826900;29;20034;-75
2021/08/11 12:05:51;;;;;;;15.75;4.32;;;35.20;89.00;;;;;;4826398;29;20039;-76
2021/08/11 12:08:19;;;;;;;11.50;4.15;;;35.00;89.70;;;;;;4826635;29;20511;-76
2021/08/11 12:11:08;;;;;;;11.98;4.25;;;34.80;90.10;;;;;;4826804;29;20034;-77
2021/08/11 12:13:39;;;;;;;11.02;4.38;;;34.70;90.10;;;;;;4826628;29;20487;-78
2021/08/11 12:16:05;;;;;;;6.60;4.28;;;34.80;90.00;;;;;;4826725;29;20042;-76
2021/08/11 12:18:31;;;;;;;9.65;4.50;;;34.70;88.50;;;;;;4826460;29;20552;-76
2021/08/11 12:21:01;;;;;;;12.82;4.60;;;34.60;90.30;;;;;;4826596;29;20034;-79
2021/08/11 12:23:29;;;;;;;12.02;4.40;;;34.60;90.50;;;;;;4825432;29;20488;-76
2021/08/11 12:25:59;;;;;;;17.65;4.57;;;34.70;90.20;;;;;;4825554;29;20480;-76
2021/08/11 12:28:40;;;;;;;9.77;4.10;;;34.80;90.10;;;;;;4826128;29;20046;-77
2021/08/11 12:31:11;;;;;;;13.00;4.68;;;34.80;90.00;;;;;;4826633;29;20035;-77
2021/08/11 12:33:42;;;;;;;10.98;4.15;;;34.90;90.50;;;;;;4826456;29;20114;-78
2021/08/11 12:36:20;;;;;;;10.32;4.28;;;34.90;90.50;;;;;;4826597;29;20034;-77
2021/08/11 12:39:01;;;;;;;13.75;4.25;;;34.90;90.80;;;;;;4826439;29;20433;-78
2021/08/11 12:41:28;;;;;;;16.23;5.13;;;34.60;91.00;;;;;;4825921;29;20038;-78
2021/08/11 12:43:56;;;;;;;9.60;4.35;;;34.60;91.40;;;;;;4826244;29;20037;-77
2021/08/11 12:46:58;;;;;;;10.68;4.60;;;34.50;91.30;;;;;;4826230;29;20042;-77
2021/08/11 12:49:29;;;;;;;16.65;4.00;;;34.40;91.60;;;;;;4805737;29;20125;-78